sensor_id;sensor_type;location;lat;lon;timestamp;temperature;humidity
71627;DHT22;59475;52.464;13.590;2022-07-23T00:01:59;16.54;86.11
71627;DHT22;59475;52.464;13.590;2022-07-23T00:04:24;16.52;86.03
71627;DHT22;59475;52.464;13.590;2022-07-23T00:06:49;16.45;86.00
71627;DHT22;59475;52.464;13.590;2022-07-23T00:09:15;16.45;86.01
71627;DHT22;59475;52.464;13.590;2022-07-23T00:11:40;16.41;86.06
71627;DHT22;59475;52.464;13.590;2022-07-23T00:14:06;16.34;86.24
71627;DHT22;59475;52.464;13.590;2022-07-23T00:16:31;16.29;86.28
71627;DHT22;59475;52.464;13.590;2022-07-23T00:18:56;16.28;86.20
71627;DHT22;59475;52.464;13.590;2022-07-23T00:21:22;16.27;85.95
71627;DHT22;59475;52.464;13.590;2022-07-23T00:23:47;16.27;85.97
71627;DHT22;59475;52.464;13.590;2022-07-23T00:26:12;16.27;86.67
71627;DHT22;59475;52.464;13.590;2022-07-23T00:28:38;16.14;87.00
71627;DHT22;59475;52.464;13.590;2022-07-23T00:31:03;16.08;87.40
71627;DHT22;59475;52.464;13.590;2022-07-23T00:33:29;16.10;87.27
71627;DHT22;59475;52.464;13.590;2022-07-23T00:35:54;16.07;87.19
71627;DHT22;59475;52.464;13.590;2022-07-23T00:38:19;16.04;87.36
71627;DHT22;59475;52.464;13.590;2022-07-23T00:40:44;15.96;87.73
71627;DHT22;59475;52.464;13.590;2022-07-23T00:43:10;15.93;87.84
71627;DHT22;59475;52.464;13.590;2022-07-23T00:45:35;15.89;87.96
71627;DHT22;59475;52.464;13.590;2022-07-23T00:48:01;15.87;87.99
71627;DHT22;59475;52.464;13.590;2022-07-23T00:50:26;15.87;88.01
71627;DHT22;59475;52.464;13.590;2022-07-23T00:52:52;15.94;87.77
71627;DHT22;59475;52.464;13.590;2022-07-23T00:55:18;16.04;87.35
71627;DHT22;59475;52.464;13.590;2022-07-23T00:57:43;16.11;87.18
71627;DHT22;59475;52.464;13.590;2022-07-23T01:00:13;16.14;87.51
71627;DHT22;59475;52.464;13.590;2022-07-23T01:02:40;16.20;87.36
71627;DHT22;59475;52.464;13.590;2022-07-23T01:05:06;16.25;87.39
71627;DHT22;59475;52.464;13.590;2022-07-23T01:07:32;16.24;87.43
71627;DHT22;59475;52.464;13.590;2022-07-23T01:09:58;16.20;87.36
71627;DHT22;59475;52.464;13.590;2022-07-23T01:12:24;16.20;87.28
71627;DHT22;59475;52.464;13.590;2022-07-23T01:14:57;16.21;87.27
71627;DHT22;59475;52.464;13.590;2022-07-23T01:17:22;16.22;87.34
71627;DHT22;59475;52.464;13.590;2022-07-23T01:19:48;16.27;87.50
71627;DHT22;59475;52.464;13.590;2022-07-23T01:22:14;16.28;87.37
71627;DHT22;59475;52.464;13.590;2022-07-23T01:24:40;16.31;87.40
71627;DHT22;59475;52.464;13.590;2022-07-23T01:27:05;16.35;87.28
71627;DHT22;59475;52.464;13.590;2022-07-23T01:29:30;16.37;86.73
71627;DHT22;59475;52.464;13.590;2022-07-23T01:31:56;16.32;86.58
71627;DHT22;59475;52.464;13.590;2022-07-23T01:34:21;16.29;86.68
71627;DHT22;59475;52.464;13.590;2022-07-23T01:36:46;16.21;87.02
71627;DHT22;59475;52.464;13.590;2022-07-23T01:39:12;16.17;86.95
71627;DHT22;59475;52.464;13.590;2022-07-23T01:41:37;16.10;87.21
71627;DHT22;59475;52.464;13.590;2022-07-23T01:44:02;16.04;87.52
71627;DHT22;59475;52.464;13.590;2022-07-23T01:46:28;16.01;87.52
71627;DHT22;59475;52.464;13.590;2022-07-23T01:48:53;16.03;87.48
71627;DHT22;59475;52.464;13.590;2022-07-23T01:51:18;16.01;87.98
71627;DHT22;59475;52.464;13.590;2022-07-23T01:53:44;16.00;87.85
71627;DHT22;59475;52.464;13.590;2022-07-23T01:56:09;15.94;87.95
71627;DHT22;59475;52.464;13.590;2022-07-23T01:58:34;15.96;88.11
71627;DHT22;59475;52.464;13.590;2022-07-23T02:01:00;15.90;88.33
71627;DHT22;59475;52.464;13.590;2022-07-23T02:03:25;15.87;88.21
71627;DHT22;59475;52.464;13.590;2022-07-23T02:05:51;15.89;87.97
71627;DHT22;59475;52.464;13.590;2022-07-23T02:08:17;15.90;88.31
71627;DHT22;59475;52.464;13.590;2022-07-23T02:10:42;15.89;88.24
71627;DHT22;59475;52.464;13.590;2022-07-23T02:13:07;15.86;88.17
71627;DHT22;59475;52.464;13.590;2022-07-23T02:15:33;15.85;88.18
71627;DHT22;59475;52.464;13.590;2022-07-23T02:17:58;15.90;88.22
71627;DHT22;59475;52.464;13.590;2022-07-23T02:20:24;15.94;88.05
71627;DHT22;59475;52.464;13.590;2022-07-23T02:22:49;16.00;87.87
71627;DHT22;59475;52.464;13.590;2022-07-23T02:25:15;15.97;88.14
71627;DHT22;59475;52.464;13.590;2022-07-23T02:27:40;15.94;88.20
71627;DHT22;59475;52.464;13.590;2022-07-23T02:30:07;15.96;88.19
71627;DHT22;59475;52.464;13.590;2022-07-23T02:32:32;15.94;88.15
71627;DHT22;59475;52.464;13.590;2022-07-23T02:34:58;15.97;88.08
71627;DHT22;59475;52.464;13.590;2022-07-23T02:37:23;16.01;88.07
71627;DHT22;59475;52.464;13.590;2022-07-23T02:39:48;16.08;87.87
71627;DHT22;59475;52.464;13.590;2022-07-23T02:42:14;16.14;87.57
71627;DHT22;59475;52.464;13.590;2022-07-23T02:44:40;16.18;87.58
71627;DHT22;59475;52.464;13.590;2022-07-23T02:47:06;16.24;87.45
71627;DHT22;59475;52.464;13.590;2022-07-23T02:49:31;16.17;87.57
71627;DHT22;59475;52.464;13.590;2022-07-23T02:51:56;16.08;87.90
71627;DHT22;59475;52.464;13.590;2022-07-23T02:54:22;16.03;88.20
71627;DHT22;59475;52.464;13.590;2022-07-23T02:56:47;16.06;88.09
71627;DHT22;59475;52.464;13.590;2022-07-23T02:59:13;16.11;88.08
71627;DHT22;59475;52.464;13.590;2022-07-23T03:01:38;16.13;88.01
71627;DHT22;59475;52.464;13.590;2022-07-23T03:04:04;16.17;87.95
71627;DHT22;59475;52.464;13.590;2022-07-23T03:06:29;16.17;87.71
71627;DHT22;59475;52.464;13.590;2022-07-23T03:08:54;16.21;87.61
71627;DHT22;59475;52.464;13.590;2022-07-23T03:11:20;16.14;87.75
71627;DHT22;59475;52.464;13.590;2022-07-23T03:13:45;16.08;88.03
71627;DHT22;59475;52.464;13.590;2022-07-23T03:16:10;16.01;87.95
71627;DHT22;59475;52.464;13.590;2022-07-23T03:18:36;15.99;87.92
71627;DHT22;59475;52.464;13.590;2022-07-23T03:21:02;15.97;88.21
71627;DHT22;59475;52.464;13.590;2022-07-23T03:23:27;16.01;88.15
71627;DHT22;59475;52.464;13.590;2022-07-23T03:25:53;15.99;88.08
71627;DHT22;59475;52.464;13.590;2022-07-23T03:28:18;15.94;88.44
71627;DHT22;59475;52.464;13.590;2022-07-23T03:30:47;15.86;88.69
71627;DHT22;59475;52.464;13.590;2022-07-23T03:33:14;15.87;88.87
71627;DHT22;59475;52.464;13.590;2022-07-23T03:35:40;15.91;88.86
71627;DHT22;59475;52.464;13.590;2022-07-23T03:38:05;16.04;88.65
71627;DHT22;59475;52.464;13.590;2022-07-23T03:40:30;16.11;88.36
71627;DHT22;59475;52.464;13.590;2022-07-23T03:42:56;16.17;87.92
71627;DHT22;59475;52.464;13.590;2022-07-23T03:45:21;16.17;87.72
71627;DHT22;59475;52.464;13.590;2022-07-23T03:47:47;16.21;86.87
71627;DHT22;59475;52.464;13.590;2022-07-23T03:50:12;16.22;86.33
71627;DHT22;59475;52.464;13.590;2022-07-23T03:52:37;16.31;86.02
71627;DHT22;59475;52.464;13.590;2022-07-23T03:55:03;16.34;86.14
71627;DHT22;59475;52.464;13.590;2022-07-23T03:57:29;16.42;85.62
71627;DHT22;59475;52.464;13.590;2022-07-23T03:59:54;16.37;85.59
71627;DHT22;59475;52.464;13.590;2022-07-23T04:02:19;16.40;85.03
71627;DHT22;59475;52.464;13.590;2022-07-23T04:04:45;16.42;85.25
71627;DHT22;59475;52.464;13.590;2022-07-23T04:07:11;16.38;84.63
71627;DHT22;59475;52.464;13.590;2022-07-23T04:09:37;16.38;84.76
71627;DHT22;59475;52.464;13.590;2022-07-23T04:12:02;16.42;84.96
71627;DHT22;59475;52.464;13.590;2022-07-23T04:14:28;16.44;84.22
71627;DHT22;59475;52.464;13.590;2022-07-23T04:16:53;16.52;84.02
71627;DHT22;59475;52.464;13.590;2022-07-23T04:19:18;16.45;84.00
71627;DHT22;59475;52.464;13.590;2022-07-23T04:21:44;16.48;83.72
71627;DHT22;59475;52.464;13.590;2022-07-23T04:24:09;16.48;83.91
71627;DHT22;59475;52.464;13.590;2022-07-23T04:26:34;16.54;83.70
71627;DHT22;59475;52.464;13.590;2022-07-23T04:28:59;16.49;83.31
71627;DHT22;59475;52.464;13.590;2022-07-23T04:31:25;16.52;83.39
71627;DHT22;59475;52.464;13.590;2022-07-23T04:33:50;16.47;82.66
71627;DHT22;59475;52.464;13.590;2022-07-23T04:36:15;16.51;82.51
71627;DHT22;59475;52.464;13.590;2022-07-23T04:38:41;16.54;82.31
71627;DHT22;59475;52.464;13.590;2022-07-23T04:41:06;16.51;81.93
71627;DHT22;59475;52.464;13.590;2022-07-23T04:43:32;16.51;82.30
71627;DHT22;59475;52.464;13.590;2022-07-23T04:45:57;16.55;82.64
71627;DHT22;59475;52.464;13.590;2022-07-23T04:48:22;16.64;81.53
71627;DHT22;59475;52.464;13.590;2022-07-23T04:50:49;16.66;81.29
71627;DHT22;59475;52.464;13.590;2022-07-23T04:53:16;16.65;82.82
71627;DHT22;59475;52.464;13.590;2022-07-23T04:55:43;16.45;82.84
71627;DHT22;59475;52.464;13.590;2022-07-23T04:58:08;16.17;85.84
71627;DHT22;59475;52.464;13.590;2022-07-23T05:00:34;15.94;87.07
71627;DHT22;59475;52.464;13.590;2022-07-23T05:02:59;15.79;87.36
71627;DHT22;59475;52.464;13.590;2022-07-23T05:05:25;15.62;89.70
71627;DHT22;59475;52.464;13.590;2022-07-23T05:07:50;15.53;89.95
71627;DHT22;59475;52.464;13.590;2022-07-23T05:10:15;15.49;89.30
71627;DHT22;59475;52.464;13.590;2022-07-23T05:12:41;15.42;89.30
71627;DHT22;59475;52.464;13.590;2022-07-23T05:15:06;15.44;89.36
71627;DHT22;59475;52.464;13.590;2022-07-23T05:17:32;15.42;88.91
71627;DHT22;59475;52.464;13.590;2022-07-23T05:19:57;15.42;89.32
71627;DHT22;59475;52.464;13.590;2022-07-23T05:22:23;15.36;89.07
71627;DHT22;59475;52.464;13.590;2022-07-23T05:24:48;15.34;90.87
71627;DHT22;59475;52.464;13.590;2022-07-23T05:27:13;15.32;90.47
71627;DHT22;59475;52.464;13.590;2022-07-23T05:29:39;15.27;89.23
71627;DHT22;59475;52.464;13.590;2022-07-23T05:32:04;15.23;89.73
71627;DHT22;59475;52.464;13.590;2022-07-23T05:34:30;15.27;90.38
71627;DHT22;59475;52.464;13.590;2022-07-23T05:36:55;15.36;90.14
71627;DHT22;59475;52.464;13.590;2022-07-23T05:39:20;15.41;90.23
71627;DHT22;59475;52.464;13.590;2022-07-23T05:41:46;15.36;89.79
71627;DHT22;59475;52.464;13.590;2022-07-23T05:44:11;15.30;89.55
71627;DHT22;59475;52.464;13.590;2022-07-23T05:46:36;15.31;90.07
71627;DHT22;59475;52.464;13.590;2022-07-23T05:49:02;15.36;89.54
71627;DHT22;59475;52.464;13.590;2022-07-23T05:51:27;15.42;89.88
71627;DHT22;59475;52.464;13.590;2022-07-23T05:53:52;15.44;89.07
71627;DHT22;59475;52.464;13.590;2022-07-23T05:56:18;15.44;88.04
71627;DHT22;59475;52.464;13.590;2022-07-23T05:58:44;15.46;88.91
71627;DHT22;59475;52.464;13.590;2022-07-23T06:01:10;15.56;89.34
71627;DHT22;59475;52.464;13.590;2022-07-23T06:03:37;15.61;88.33
71627;DHT22;59475;52.464;13.590;2022-07-23T06:06:02;15.52;90.37
71627;DHT22;59475;52.464;13.590;2022-07-23T06:08:28;15.48;90.39
71627;DHT22;59475;52.464;13.590;2022-07-23T06:10:53;15.46;89.83
71627;DHT22;59475;52.464;13.590;2022-07-23T06:13:18;15.48;89.29
71627;DHT22;59475;52.464;13.590;2022-07-23T06:15:44;15.45;88.27
71627;DHT22;59475;52.464;13.590;2022-07-23T06:18:09;15.42;89.95
71627;DHT22;59475;52.464;13.590;2022-07-23T06:20:34;15.42;90.22
71627;DHT22;59475;52.464;13.590;2022-07-23T06:23:00;15.42;90.26
71627;DHT22;59475;52.464;13.590;2022-07-23T06:25:25;15.41;90.43
71627;DHT22;59475;52.464;13.590;2022-07-23T06:27:50;15.31;89.50
71627;DHT22;59475;52.464;13.590;2022-07-23T06:30:16;15.23;90.42
71627;DHT22;59475;52.464;13.590;2022-07-23T06:32:42;15.15;90.69
71627;DHT22;59475;52.464;13.590;2022-07-23T06:35:08;15.15;90.85
71627;DHT22;59475;52.464;13.590;2022-07-23T06:37:33;15.18;91.32
71627;DHT22;59475;52.464;13.590;2022-07-23T06:39:58;15.25;91.88
71627;DHT22;59475;52.464;13.590;2022-07-23T06:42:23;15.31;91.79
71627;DHT22;59475;52.464;13.590;2022-07-23T06:44:49;15.36;91.80
71627;DHT22;59475;52.464;13.590;2022-07-23T06:47:14;15.42;91.80
71627;DHT22;59475;52.464;13.590;2022-07-23T06:49:39;15.48;91.20
71627;DHT22;59475;52.464;13.590;2022-07-23T06:52:06;15.55;91.85
71627;DHT22;59475;52.464;13.590;2022-07-23T06:54:31;15.53;90.25
71627;DHT22;59475;52.464;13.590;2022-07-23T06:56:57;15.52;91.02
71627;DHT22;59475;52.464;13.590;2022-07-23T06:59:22;15.52;91.32
71627;DHT22;59475;52.464;13.590;2022-07-23T07:01:47;15.51;91.56
71627;DHT22;59475;52.464;13.590;2022-07-23T07:04:13;15.56;91.80
71627;DHT22;59475;52.464;13.590;2022-07-23T07:06:38;15.67;91.40
71627;DHT22;59475;52.464;13.590;2022-07-23T07:09:03;15.72;89.88
71627;DHT22;59475;52.464;13.590;2022-07-23T07:11:29;15.78;91.19
71627;DHT22;59475;52.464;13.590;2022-07-23T07:13:54;15.90;91.59
71627;DHT22;59475;52.464;13.590;2022-07-23T07:16:19;15.97;91.11
71627;DHT22;59475;52.464;13.590;2022-07-23T07:18:45;16.00;90.49
71627;DHT22;59475;52.464;13.590;2022-07-23T07:21:10;16.10;90.53
71627;DHT22;59475;52.464;13.590;2022-07-23T07:23:35;16.14;89.21
71627;DHT22;59475;52.464;13.590;2022-07-23T07:26:01;16.06;89.81
71627;DHT22;59475;52.464;13.590;2022-07-23T07:28:26;15.93;90.14
71627;DHT22;59475;52.464;13.590;2022-07-23T07:30:51;15.86;89.38
71627;DHT22;59475;52.464;13.590;2022-07-23T07:33:17;15.91;89.52
71627;DHT22;59475;52.464;13.590;2022-07-23T07:35:42;15.99;89.90
71627;DHT22;59475;52.464;13.590;2022-07-23T07:38:07;16.08;89.20
71627;DHT22;59475;52.464;13.590;2022-07-23T07:40:33;16.13;89.08
71627;DHT22;59475;52.464;13.590;2022-07-23T07:42:58;16.11;89.01
71627;DHT22;59475;52.464;13.590;2022-07-23T07:45:24;16.03;89.97
71627;DHT22;59475;52.464;13.590;2022-07-23T07:47:50;16.03;88.64
71627;DHT22;59475;52.464;13.590;2022-07-23T07:50:17;16.10;88.17
71627;DHT22;59475;52.464;13.590;2022-07-23T07:52:42;16.17;88.63
71627;DHT22;59475;52.464;13.590;2022-07-23T07:55:08;16.16;88.89
71627;DHT22;59475;52.464;13.590;2022-07-23T07:57:34;16.17;90.30
71627;DHT22;59475;52.464;13.590;2022-07-23T08:00:00;16.16;90.26
71627;DHT22;59475;52.464;13.590;2022-07-23T08:02:26;16.17;90.15
71627;DHT22;59475;52.464;13.590;2022-07-23T08:04:51;16.27;90.04
71627;DHT22;59475;52.464;13.590;2022-07-23T08:07:17;16.41;89.75
71627;DHT22;59475;52.464;13.590;2022-07-23T08:09:43;16.48;88.23
71627;DHT22;59475;52.464;13.590;2022-07-23T08:12:08;16.55;89.22
71627;DHT22;59475;52.464;13.590;2022-07-23T08:14:33;16.52;87.91
71627;DHT22;59475;52.464;13.590;2022-07-23T08:16:59;16.64;88.84
71627;DHT22;59475;52.464;13.590;2022-07-23T08:19:24;16.73;87.78
71627;DHT22;59475;52.464;13.590;2022-07-23T08:21:49;16.96;87.98
71627;DHT22;59475;52.464;13.590;2022-07-23T08:24:15;17.10;89.12
71627;DHT22;59475;52.464;13.590;2022-07-23T08:26:40;17.37;87.34
71627;DHT22;59475;52.464;13.590;2022-07-23T08:29:06;17.76;86.14
71627;DHT22;59475;52.464;13.590;2022-07-23T08:31:31;18.23;84.46
71627;DHT22;59475;52.464;13.590;2022-07-23T08:33:58;18.22;83.49
71627;DHT22;59475;52.464;13.590;2022-07-23T08:36:23;17.93;82.33
71627;DHT22;59475;52.464;13.590;2022-07-23T08:38:49;18.22;82.18
71627;DHT22;59475;52.464;13.590;2022-07-23T08:41:14;19.00;80.90
71627;DHT22;59475;52.464;13.590;2022-07-23T08:43:41;19.37;76.52
71627;DHT22;59475;52.464;13.590;2022-07-23T08:46:08;19.72;74.61
71627;DHT22;59475;52.464;13.590;2022-07-23T08:48:35;19.92;74.54
71627;DHT22;59475;52.464;13.590;2022-07-23T08:51:02;19.93;73.70
71627;DHT22;59475;52.464;13.590;2022-07-23T08:53:29;19.57;75.41
71627;DHT22;59475;52.464;13.590;2022-07-23T08:56:00;19.86;76.43
71627;DHT22;59475;52.464;13.590;2022-07-23T08:58:30;20.13;74.11
71627;DHT22;59475;52.464;13.590;2022-07-23T09:00:56;20.84;72.42
71627;DHT22;59475;52.464;13.590;2022-07-23T09:03:23;21.77;68.09
71627;DHT22;59475;52.464;13.590;2022-07-23T09:05:50;22.36;66.12
71627;DHT22;59475;52.464;13.590;2022-07-23T09:08:17;22.22;65.47
71627;DHT22;59475;52.464;13.590;2022-07-23T09:13:25;21.46;68.37
71627;DHT22;59475;52.464;13.590;2022-07-23T09:15:52;21.60;67.22
71627;DHT22;59475;52.464;13.590;2022-07-23T09:18:18;21.26;67.03
71627;DHT22;59475;52.464;13.590;2022-07-23T09:20:44;21.19;68.04
71627;DHT22;59475;52.464;13.590;2022-07-23T09:23:10;22.01;66.29
71627;DHT22;59475;52.464;13.590;2022-07-23T09:25:35;21.83;65.58
71627;DHT22;59475;52.464;13.590;2022-07-23T09:28:00;22.64;66.74
71627;DHT22;59475;52.464;13.590;2022-07-23T09:30:30;22.60;63.74
71627;DHT22;59475;52.464;13.590;2022-07-23T09:33:10;21.83;66.35
71627;DHT22;59475;52.464;13.590;2022-07-23T09:35:52;20.75;69.25
71627;DHT22;59475;52.464;13.590;2022-07-23T09:38:20;20.64;69.72
71627;DHT22;59475;52.464;13.590;2022-07-23T09:40:46;20.48;70.13
71627;DHT22;59475;52.464;13.590;2022-07-23T09:43:25;20.36;70.35
71627;DHT22;59475;52.464;13.590;2022-07-23T09:45:52;20.70;68.88
71627;DHT22;59475;52.464;13.590;2022-07-23T09:48:18;21.49;69.42
71627;DHT22;59475;52.464;13.590;2022-07-23T09:50:44;22.14;67.12
71627;DHT22;59475;52.464;13.590;2022-07-23T09:53:23;22.69;64.96
71627;DHT22;59475;52.464;13.590;2022-07-23T09:55:51;22.90;63.62
71627;DHT22;59475;52.464;13.590;2022-07-23T09:58:17;22.93;63.93
71627;DHT22;59475;52.464;13.590;2022-07-23T10:00:43;22.60;63.00
71627;DHT22;59475;52.464;13.590;2022-07-23T10:03:11;22.38;62.68
71627;DHT22;59475;52.464;13.590;2022-07-23T10:05:37;22.02;63.87
71627;DHT22;59475;52.464;13.590;2022-07-23T10:08:02;21.88;65.71
71627;DHT22;59475;52.464;13.590;2022-07-23T10:10:28;22.06;64.65
71627;DHT22;59475;52.464;13.590;2022-07-23T10:12:55;22.23;63.66
71627;DHT22;59475;52.464;13.590;2022-07-23T10:15:33;22.48;64.25
71627;DHT22;59475;52.464;13.590;2022-07-23T10:17:58;22.41;62.80
71627;DHT22;59475;52.464;13.590;2022-07-23T10:20:24;23.34;61.29
71627;DHT22;59475;52.464;13.590;2022-07-23T10:23:13;23.63;58.00
71627;DHT22;59475;52.464;13.590;2022-07-23T10:26:11;22.67;59.89
71627;DHT22;59475;52.464;13.590;2022-07-23T10:32:03;23.44;59.86
71627;DHT22;59475;52.464;13.590;2022-07-23T10:34:46;24.01;56.14
71627;DHT22;59475;52.464;13.590;2022-07-23T10:37:16;24.42;55.23
71627;DHT22;59475;52.464;13.590;2022-07-23T10:40:15;24.62;54.02
71627;DHT22;59475;52.464;13.590;2022-07-23T10:42:43;24.06;55.56
71627;DHT22;59475;52.464;13.590;2022-07-23T10:47:49;22.53;59.00
71627;DHT22;59475;52.464;13.590;2022-07-23T10:50:18;22.61;60.02
71627;DHT22;59475;52.464;13.590;2022-07-23T10:53:09;22.83;60.58
71627;DHT22;59475;52.464;13.590;2022-07-23T10:58:03;23.34;55.20
71627;DHT22;59475;52.464;13.590;2022-07-23T11:00:32;23.29;56.47
71627;DHT22;59475;52.464;13.590;2022-07-23T11:03:06;23.05;57.71
71627;DHT22;59475;52.464;13.590;2022-07-23T11:05:47;23.39;56.82
71627;DHT22;59475;52.464;13.590;2022-07-23T11:08:19;23.05;55.60
71627;DHT22;59475;52.464;13.590;2022-07-23T11:10:49;23.08;57.01
71627;DHT22;59475;52.464;13.590;2022-07-23T11:32:04;24.24;51.94
71627;DHT22;59475;52.464;13.590;2022-07-23T11:34:49;23.77;53.87
71627;DHT22;59475;52.464;13.590;2022-07-23T11:37:35;23.44;55.02
71627;DHT22;59475;52.464;13.590;2022-07-23T11:40:07;23.65;54.81
71627;DHT22;59475;52.464;13.590;2022-07-23T11:42:34;24.08;54.71
71627;DHT22;59475;52.464;13.590;2022-07-23T11:45:00;24.38;53.19
71627;DHT22;59475;52.464;13.590;2022-07-23T11:47:26;24.18;52.21
71627;DHT22;59475;52.464;13.590;2022-07-23T11:50:00;25.00;51.67
71627;DHT22;59475;52.464;13.590;2022-07-23T11:52:27;25.92;50.71
71627;DHT22;59475;52.464;13.590;2022-07-23T11:54:58;25.81;49.35
71627;DHT22;59475;52.464;13.590;2022-07-23T11:57:39;25.14;51.30
71627;DHT22;59475;52.464;13.590;2022-07-23T12:02:49;23.87;53.65
71627;DHT22;59475;52.464;13.590;2022-07-23T12:05:17;23.73;54.04
71627;DHT22;59475;52.464;13.590;2022-07-23T12:07:47;23.66;54.62
71627;DHT22;59475;52.464;13.590;2022-07-23T12:12:54;23.99;52.45
71627;DHT22;59475;52.464;13.590;2022-07-23T12:15:25;24.17;56.34
71627;DHT22;59475;52.464;13.590;2022-07-23T12:17:53;24.73;52.73
71627;DHT22;59475;52.464;13.590;2022-07-23T12:20:22;24.47;52.11
71627;DHT22;59475;52.464;13.590;2022-07-23T12:22:50;23.90;52.55
71627;DHT22;59475;52.464;13.590;2022-07-23T12:25:17;23.82;52.81
71627;DHT22;59475;52.464;13.590;2022-07-23T12:27:44;23.61;53.77
71627;DHT22;59475;52.464;13.590;2022-07-23T12:32:49;23.10;54.16
71627;DHT22;59475;52.464;13.590;2022-07-23T12:35:16;23.22;56.21
71627;DHT22;59475;52.464;13.590;2022-07-23T12:37:44;23.35;54.80
71627;DHT22;59475;52.464;13.590;2022-07-23T12:40:27;23.24;54.94
71627;DHT22;59475;52.464;13.590;2022-07-23T12:43:06;23.05;54.97
71627;DHT22;59475;52.464;13.590;2022-07-23T12:45:43;23.38;54.25
71627;DHT22;59475;52.464;13.590;2022-07-23T12:48:15;23.73;56.25
71627;DHT22;59475;52.464;13.590;2022-07-23T12:50:50;24.06;54.63
71627;DHT22;59475;52.464;13.590;2022-07-23T12:53:52;24.10;52.62
71627;DHT22;59475;52.464;13.590;2022-07-23T12:56:29;24.38;51.87
71627;DHT22;59475;52.464;13.590;2022-07-23T13:01:30;24.47;53.49
71627;DHT22;59475;52.464;13.590;2022-07-23T13:06:25;24.89;52.13
71627;DHT22;59475;52.464;13.590;2022-07-23T13:08:51;24.71;51.79
71627;DHT22;59475;52.464;13.590;2022-07-23T13:11:17;24.66;51.78
71627;DHT22;59475;52.464;13.590;2022-07-23T13:13:42;24.52;52.93
71627;DHT22;59475;52.464;13.590;2022-07-23T13:16:07;24.55;52.53
71627;DHT22;59475;52.464;13.590;2022-07-23T13:18:33;24.79;52.18
71627;DHT22;59475;52.464;13.590;2022-07-23T13:20:59;24.99;52.31
71627;DHT22;59475;52.464;13.590;2022-07-23T13:23:25;25.11;51.91
71627;DHT22;59475;52.464;13.590;2022-07-23T13:25:54;25.31;51.41
71627;DHT22;59475;52.464;13.590;2022-07-23T13:28:21;25.30;50.96
71627;DHT22;59475;52.464;13.590;2022-07-23T13:30:48;25.14;50.04
71627;DHT22;59475;52.464;13.590;2022-07-23T13:33:16;24.48;51.60
71627;DHT22;59475;52.464;13.590;2022-07-23T13:35:42;24.21;51.67
71627;DHT22;59475;52.464;13.590;2022-07-23T13:38:08;24.01;53.11
71627;DHT22;59475;52.464;13.590;2022-07-23T13:40:38;23.84;53.29
71627;DHT22;59475;52.464;13.590;2022-07-23T13:43:07;23.83;53.05
71627;DHT22;59475;52.464;13.590;2022-07-23T13:45:33;23.72;53.55
71627;DHT22;59475;52.464;13.590;2022-07-23T13:47:59;23.69;53.47
71627;DHT22;59475;52.464;13.590;2022-07-23T13:50:25;23.74;53.90
71627;DHT22;59475;52.464;13.590;2022-07-23T13:52:50;23.63;52.67
71627;DHT22;59475;52.464;13.590;2022-07-23T13:55:15;23.39;53.66
71627;DHT22;59475;52.464;13.590;2022-07-23T13:57:41;23.39;53.54
71627;DHT22;59475;52.464;13.590;2022-07-23T14:00:08;23.62;53.72
71627;DHT22;59475;52.464;13.590;2022-07-23T14:02:36;23.51;52.49
71627;DHT22;59475;52.464;13.590;2022-07-23T14:05:04;23.53;52.05
71627;DHT22;59475;52.464;13.590;2022-07-23T14:07:29;23.65;53.42
71627;DHT22;59475;52.464;13.590;2022-07-23T14:09:55;23.53;52.55
71627;DHT22;59475;52.464;13.590;2022-07-23T14:12:20;23.31;53.10
71627;DHT22;59475;52.464;13.590;2022-07-23T14:14:45;23.37;53.42
71627;DHT22;59475;52.464;13.590;2022-07-23T14:17:11;23.63;53.84
71627;DHT22;59475;52.464;13.590;2022-07-23T14:19:36;23.99;54.59
71627;DHT22;59475;52.464;13.590;2022-07-23T14:22:03;24.34;52.94
71627;DHT22;59475;52.464;13.590;2022-07-23T14:24:28;24.59;51.45
71627;DHT22;59475;52.464;13.590;2022-07-23T14:26:54;24.75;51.57
71627;DHT22;59475;52.464;13.590;2022-07-23T14:29:19;24.10;51.40
71627;DHT22;59475;52.464;13.590;2022-07-23T14:31:45;23.69;53.08
71627;DHT22;59475;52.464;13.590;2022-07-23T14:34:10;23.44;52.71
71627;DHT22;59475;52.464;13.590;2022-07-23T14:36:37;23.46;53.64
71627;DHT22;59475;52.464;13.590;2022-07-23T14:39:02;23.53;53.31
71627;DHT22;59475;52.464;13.590;2022-07-23T14:41:28;23.79;52.90
71627;DHT22;59475;52.464;13.590;2022-07-23T14:43:53;23.92;51.56
71627;DHT22;59475;52.464;13.590;2022-07-23T14:46:19;24.08;52.48
71627;DHT22;59475;52.464;13.590;2022-07-23T14:48:44;24.22;50.85
71627;DHT22;59475;52.464;13.590;2022-07-23T14:51:09;24.18;51.31
71627;DHT22;59475;52.464;13.590;2022-07-23T14:53:35;23.90;51.86
71627;DHT22;59475;52.464;13.590;2022-07-23T14:56:00;24.01;52.27
71627;DHT22;59475;52.464;13.590;2022-07-23T14:58:25;24.14;51.46
71627;DHT22;59475;52.464;13.590;2022-07-23T15:00:51;24.21;51.19
71627;DHT22;59475;52.464;13.590;2022-07-23T15:03:16;24.29;51.56
71627;DHT22;59475;52.464;13.590;2022-07-23T15:05:42;24.27;51.06
71627;DHT22;59475;52.464;13.590;2022-07-23T15:08:07;24.32;51.46
71627;DHT22;59475;52.464;13.590;2022-07-23T15:10:33;24.44;50.25
71627;DHT22;59475;52.464;13.590;2022-07-23T15:12:59;24.51;51.19
71627;DHT22;59475;52.464;13.590;2022-07-23T15:15:24;24.49;48.91
71627;DHT22;59475;52.464;13.590;2022-07-23T15:17:49;24.48;48.82
71627;DHT22;59475;52.464;13.590;2022-07-23T15:20:15;24.48;49.56
71627;DHT22;59475;52.464;13.590;2022-07-23T15:22:40;24.45;48.63
71627;DHT22;59475;52.464;13.590;2022-07-23T15:25:06;24.38;48.62
71627;DHT22;59475;52.464;13.590;2022-07-23T15:27:31;24.49;50.06
71627;DHT22;59475;52.464;13.590;2022-07-23T15:29:57;24.62;48.19
71627;DHT22;59475;52.464;13.590;2022-07-23T15:32:26;24.72;49.18
71627;DHT22;59475;52.464;13.590;2022-07-23T15:34:56;24.44;48.10
71627;DHT22;59475;52.464;13.590;2022-07-23T15:37:22;24.20;49.04
71627;DHT22;59475;52.464;13.590;2022-07-23T15:39:51;24.10;49.96
71627;DHT22;59475;52.464;13.590;2022-07-23T15:42:16;24.13;49.59
71627;DHT22;59475;52.464;13.590;2022-07-23T15:44:42;24.06;49.39
71627;DHT22;59475;52.464;13.590;2022-07-23T15:47:13;24.04;49.66
71627;DHT22;59475;52.464;13.590;2022-07-23T15:49:39;24.01;48.83
71627;DHT22;59475;52.464;13.590;2022-07-23T15:52:04;24.11;49.65
71627;DHT22;59475;52.464;13.590;2022-07-23T15:54:30;24.22;48.04
71627;DHT22;59475;52.464;13.590;2022-07-23T15:56:56;24.39;48.59